sensor_id;sensor_type;location;lat;lon;timestamp;pressure;altitude;pressure_sealevel;temperature;humidity
69772;BME280;57046;45.988;18.664;2023-03-19T00:00:41;100953.84;;;7.09;67.31
69772;BME280;57046;45.988;18.664;2023-03-19T00:03:06;100964.75;;;6.94;67.67
69772;BME280;57046;45.988;18.664;2023-03-19T00:05:32;100975.50;;;6.94;67.67
69772;BME280;57046;45.988;18.664;2023-03-19T00:07:57;100962.44;;;6.77;68.21
69772;BME280;57046;45.988;18.664;2023-03-19T00:10:22;100964.63;;;6.75;68.34
69772;BME280;57046;45.988;18.664;2023-03-19T00:12:48;100966.28;;;6.71;68.46
69772;BME280;57046;45.988;18.664;2023-03-19T00:15:13;100964.72;;;6.65;68.79
69772;BME280;57046;45.988;18.664;2023-03-19T00:17:39;100973.84;;;6.64;68.80
69772;BME280;57046;45.988;18.664;2023-03-19T00:20:05;100977.94;;;6.56;68.21
69772;BME280;57046;45.988;18.664;2023-03-19T00:22:31;100973.50;;;6.37;68.71
69772;BME280;57046;45.988;18.664;2023-03-19T00:24:56;100977.69;;;6.09;69.88
69772;BME280;57046;45.988;18.664;2023-03-19T00:27:22;100983.13;;;5.99;69.95
69772;BME280;57046;45.988;18.664;2023-03-19T00:29:47;100981.75;;;6.06;69.93
69772;BME280;57046;45.988;18.664;2023-03-19T00:32:12;100984.44;;;6.06;68.19
69772;BME280;57046;45.988;18.664;2023-03-19T00:34:38;100989.91;;;5.86;68.15
69772;BME280;57046;45.988;18.664;2023-03-19T00:37:03;100989.69;;;5.68;69.17
69772;BME280;57046;45.988;18.664;2023-03-19T00:39:28;100977.56;;;5.75;68.89
69772;BME280;57046;45.988;18.664;2023-03-19T00:41:54;100985.56;;;5.85;69.26
69772;BME280;57046;45.988;18.664;2023-03-19T00:44:19;100980.22;;;5.90;69.49
69772;BME280;57046;45.988;18.664;2023-03-19T00:46:44;100970.06;;;5.87;69.53
69772;BME280;57046;45.988;18.664;2023-03-19T00:49:10;100965.75;;;5.91;70.69
69772;BME280;57046;45.988;18.664;2023-03-19T00:51:35;100964.38;;;5.94;70.74
69772;BME280;57046;45.988;18.664;2023-03-19T00:54:01;100955.56;;;5.88;71.23
69772;BME280;57046;45.988;18.664;2023-03-19T00:56:26;100961.72;;;5.94;71.29
69772;BME280;57046;45.988;18.664;2023-03-19T00:58:52;100955.53;;;5.98;71.37
69772;BME280;57046;45.988;18.664;2023-03-19T01:01:17;100953.38;;;5.95;72.18
69772;BME280;57046;45.988;18.664;2023-03-19T01:03:44;100954.72;;;5.98;71.87
69772;BME280;57046;45.988;18.664;2023-03-19T01:06:10;100952.28;;;6.01;71.63
69772;BME280;57046;45.988;18.664;2023-03-19T01:08:36;100949.00;;;6.09;71.64
69772;BME280;57046;45.988;18.664;2023-03-19T01:11:12;100947.75;;;5.97;71.91
69772;BME280;57046;45.988;18.664;2023-03-19T01:13:37;100948.53;;;5.97;70.66
69772;BME280;57046;45.988;18.664;2023-03-19T01:16:03;100943.75;;;5.94;70.96
69772;BME280;57046;45.988;18.664;2023-03-19T01:18:29;100945.91;;;5.87;71.15
69772;BME280;57046;45.988;18.664;2023-03-19T01:20:54;100938.69;;;5.88;71.53
69772;BME280;57046;45.988;18.664;2023-03-19T01:23:20;100937.59;;;5.84;71.80
69772;BME280;57046;45.988;18.664;2023-03-19T01:25:45;100937.59;;;5.84;71.59
69772;BME280;57046;45.988;18.664;2023-03-19T01:28:11;100930.38;;;5.79;71.17
69772;BME280;57046;45.988;18.664;2023-03-19T01:30:36;100938.16;;;5.76;71.78
69772;BME280;57046;45.988;18.664;2023-03-19T01:33:01;100932.53;;;5.72;71.83
69772;BME280;57046;45.988;18.664;2023-03-19T01:35:27;100935.53;;;5.71;71.80
69772;BME280;57046;45.988;18.664;2023-03-19T01:37:52;100931.22;;;5.70;72.08
69772;BME280;57046;45.988;18.664;2023-03-19T01:40:17;100929.63;;;5.69;71.47
69772;BME280;57046;45.988;18.664;2023-03-19T01:43:12;100930.72;;;5.68;71.86
69772;BME280;57046;45.988;18.664;2023-03-19T01:45:39;100928.31;;;5.61;71.69
69772;BME280;57046;45.988;18.664;2023-03-19T01:48:05;100925.41;;;5.57;72.07
69772;BME280;57046;45.988;18.664;2023-03-19T01:50:39;100914.72;;;5.42;72.27
69772;BME280;57046;45.988;18.664;2023-03-19T01:53:06;100935.84;;;5.54;71.87
69772;BME280;57046;45.988;18.664;2023-03-19T01:55:33;100935.59;;;5.50;71.48
69772;BME280;57046;45.988;18.664;2023-03-19T01:58:00;100929.75;;;5.38;72.36
69772;BME280;57046;45.988;18.664;2023-03-19T02:00:27;100929.50;;;5.25;73.92
69772;BME280;57046;45.988;18.664;2023-03-19T02:02:56;100925.22;;;5.34;74.12
69772;BME280;57046;45.988;18.664;2023-03-19T02:05:24;100920.09;;;5.42;74.08
69772;BME280;57046;45.988;18.664;2023-03-19T02:07:57;100914.72;;;5.42;72.89
69772;BME280;57046;45.988;18.664;2023-03-19T02:10:24;100921.44;;;5.40;73.83
69772;BME280;57046;45.988;18.664;2023-03-19T02:12:50;100917.66;;;5.51;72.88
69772;BME280;57046;45.988;18.664;2023-03-19T02:15:16;100905.66;;;5.33;73.45
69772;BME280;57046;45.988;18.664;2023-03-19T02:17:41;100914.78;;;5.27;74.19
69772;BME280;57046;45.988;18.664;2023-03-19T02:20:34;100919.59;;;5.25;73.30
69772;BME280;57046;45.988;18.664;2023-03-19T02:28:37;100898.75;;;5.07;73.61
69772;BME280;57046;45.988;18.664;2023-03-19T02:31:05;100899.28;;;5.14;73.81
69772;BME280;57046;45.988;18.664;2023-03-19T02:33:31;100899.03;;;5.05;74.93
69772;BME280;57046;45.988;18.664;2023-03-19T02:35:56;100905.44;;;5.14;75.07
69772;BME280;57046;45.988;18.664;2023-03-19T02:38:24;100903.31;;;5.11;75.36
69772;BME280;57046;45.988;18.664;2023-03-19T02:40:54;100902.25;;;5.12;74.75
69772;BME280;57046;45.988;18.664;2023-03-19T02:43:22;100871.50;;;4.85;74.88
69772;BME280;57046;45.988;18.664;2023-03-19T02:45:47;100898.28;;;5.00;75.24
69772;BME280;57046;45.988;18.664;2023-03-19T02:48:13;100894.25;;;5.02;75.80
69772;BME280;57046;45.988;18.664;2023-03-19T02:50:38;100880.81;;;5.07;75.59
69772;BME280;57046;45.988;18.664;2023-03-19T02:53:03;100890.94;;;5.21;74.70
69772;BME280;57046;45.988;18.664;2023-03-19T02:55:29;100884.31;;;5.13;75.03
69772;BME280;57046;45.988;18.664;2023-03-19T02:57:54;100895.81;;;5.13;75.47
69772;BME280;57046;45.988;18.664;2023-03-19T03:00:20;100864.81;;;4.92;75.38
69772;BME280;57046;45.988;18.664;2023-03-19T03:02:45;100885.91;;;5.04;74.27
69772;BME280;57046;45.988;18.664;2023-03-19T03:05:11;100891.28;;;4.94;75.00
69772;BME280;57046;45.988;18.664;2023-03-19T03:07:37;100906.84;;;4.92;75.11
69772;BME280;57046;45.988;18.664;2023-03-19T03:10:02;100909.78;;;4.95;75.37
69772;BME280;57046;45.988;18.664;2023-03-19T03:12:28;100906.81;;;4.97;74.56
69772;BME280;57046;45.988;18.664;2023-03-19T03:14:53;100900.41;;;4.98;74.37
69772;BME280;57046;45.988;18.664;2023-03-19T03:17:18;100903.34;;;4.91;73.82
69772;BME280;57046;45.988;18.664;2023-03-19T03:19:44;100915.94;;;4.91;73.26
69772;BME280;57046;45.988;18.664;2023-03-19T03:22:09;100918.09;;;4.84;74.37
69772;BME280;57046;45.988;18.664;2023-03-19T03:24:35;100916.75;;;4.81;74.93
69772;BME280;57046;45.988;18.664;2023-03-19T03:27:00;100922.13;;;4.71;74.75
69772;BME280;57046;45.988;18.664;2023-03-19T03:29:26;100921.59;;;4.69;74.44
69772;BME280;57046;45.988;18.664;2023-03-19T03:31:51;100920.78;;;4.63;75.06
69772;BME280;57046;45.988;18.664;2023-03-19T03:34:17;100922.94;;;4.61;74.56
69772;BME280;57046;45.988;18.664;2023-03-19T03:36:42;100913.56;;;4.54;73.97
69772;BME280;57046;45.988;18.664;2023-03-19T03:39:08;100938.19;;;4.56;73.92
69772;BME280;57046;45.988;18.664;2023-03-19T03:41:33;100942.75;;;4.55;73.39
69772;BME280;57046;45.988;18.664;2023-03-19T03:43:59;100940.59;;;4.42;73.24
69772;BME280;57046;45.988;18.664;2023-03-19T03:46:24;100940.88;;;4.31;74.58
69772;BME280;57046;45.988;18.664;2023-03-19T03:48:49;100944.34;;;4.31;75.08
69772;BME280;57046;45.988;18.664;2023-03-19T03:51:15;100932.28;;;4.29;74.61
69772;BME280;57046;45.988;18.664;2023-03-19T03:53:41;100932.81;;;4.21;75.69
69772;BME280;57046;45.988;18.664;2023-03-19T03:56:06;100936.03;;;4.18;75.65
69772;BME280;57046;45.988;18.664;2023-03-19T03:58:32;100930.44;;;4.24;76.19
69772;BME280;57046;45.988;18.664;2023-03-19T04:00:58;100930.16;;;4.21;76.28
69772;BME280;57046;45.988;18.664;2023-03-19T04:03:23;100932.56;;;4.27;76.41
69772;BME280;57046;45.988;18.664;2023-03-19T04:05:49;100936.06;;;4.28;77.08
69772;BME280;57046;45.988;18.664;2023-03-19T04:08:15;100925.34;;;4.23;78.37
69772;BME280;57046;45.988;18.664;2023-03-19T04:10:41;100928.00;;;4.18;78.64
69772;BME280;57046;45.988;18.664;2023-03-19T04:13:07;100929.88;;;4.22;78.96
69772;BME280;57046;45.988;18.664;2023-03-19T04:15:33;100935.22;;;4.22;78.86
69772;BME280;57046;45.988;18.664;2023-03-19T04:17:58;100937.91;;;4.27;79.48
69772;BME280;57046;45.988;18.664;2023-03-19T04:20:24;100941.94;;;4.25;79.38
69772;BME280;57046;45.988;18.664;2023-03-19T04:22:49;100942.75;;;4.25;78.76
69772;BME280;57046;45.988;18.664;2023-03-19T04:25:15;100941.66;;;4.21;78.99
69772;BME280;57046;45.988;18.664;2023-03-19T04:27:40;100945.66;;;4.19;78.22
69772;BME280;57046;45.988;18.664;2023-03-19T04:30:06;100939.78;;;4.17;78.78
69772;BME280;57046;45.988;18.664;2023-03-19T04:32:31;100937.13;;;4.22;78.13
69772;BME280;57046;45.988;18.664;2023-03-19T04:34:57;100935.22;;;4.22;78.90
69772;BME280;57046;45.988;18.664;2023-03-19T04:37:22;100928.53;;;4.20;78.82
69772;BME280;57046;45.988;18.664;2023-03-19T04:39:48;100931.22;;;4.15;78.92
69772;BME280;57046;45.988;18.664;2023-03-19T04:42:13;100935.47;;;4.16;79.50
69772;BME280;57046;45.988;18.664;2023-03-19T04:44:38;100922.94;;;4.11;80.12
69772;BME280;57046;45.988;18.664;2023-03-19T04:47:04;100928.00;;;4.07;80.57
69772;BME280;57046;45.988;18.664;2023-03-19T04:49:29;100926.94;;;4.14;80.21
69772;BME280;57046;45.988;18.664;2023-03-19T04:51:54;100923.19;;;4.04;81.09
69772;BME280;57046;45.988;18.664;2023-03-19T04:54:20;100923.97;;;4.15;80.30
69772;BME280;57046;45.988;18.664;2023-03-19T04:56:45;100920.78;;;4.13;80.37
69772;BME280;57046;45.988;18.664;2023-03-19T04:59:10;100921.84;;;4.17;80.65
69772;BME280;57046;45.988;18.664;2023-03-19T05:01:36;100922.09;;;4.05;81.29
69772;BME280;57046;45.988;18.664;2023-03-19T05:04:01;100903.91;;;3.92;81.22
69772;BME280;57046;45.988;18.664;2023-03-19T05:06:27;100925.31;;;4.07;80.90
69772;BME280;57046;45.988;18.664;2023-03-19T05:08:53;100926.91;;;4.08;80.05
69772;BME280;57046;45.988;18.664;2023-03-19T05:11:18;100929.59;;;4.03;80.95
69772;BME280;57046;45.988;18.664;2023-03-19T05:13:44;100939.47;;;4.03;83.78
69772;BME280;57046;45.988;18.664;2023-03-19T05:16:09;100932.53;;;4.07;81.29
69772;BME280;57046;45.988;18.664;2023-03-19T05:18:35;100927.72;;;4.09;80.01
69772;BME280;57046;45.988;18.664;2023-03-19T05:21:00;100937.59;;;4.08;79.92
69772;BME280;57046;45.988;18.664;2023-03-19T05:23:26;100937.88;;;4.07;79.71
69772;BME280;57046;45.988;18.664;2023-03-19T05:25:51;100936.03;;;4.07;79.86
69772;BME280;57046;45.988;18.664;2023-03-19T05:28:17;100936.81;;;4.03;80.70
69772;BME280;57046;45.988;18.664;2023-03-19T05:30:42;100937.34;;;4.05;80.64
69772;BME280;57046;45.988;18.664;2023-03-19T05:33:08;100943.72;;;3.89;81.06
69772;BME280;57046;45.988;18.664;2023-03-19T05:35:35;100940.00;;;3.90;80.87
69772;BME280;57046;45.988;18.664;2023-03-19T05:38:01;100924.22;;;3.93;81.25
69772;BME280;57046;45.988;18.664;2023-03-19T05:40:26;100935.47;;;4.00;81.89
69772;BME280;57046;45.988;18.664;2023-03-19T05:42:52;100939.47;;;4.03;82.22
69772;BME280;57046;45.988;18.664;2023-03-19T05:45:18;100940.00;;;4.05;82.07
69772;BME280;57046;45.988;18.664;2023-03-19T05:47:46;100942.69;;;4.15;81.93
69772;BME280;57046;45.988;18.664;2023-03-19T05:50:11;100955.25;;;4.09;82.43
69772;BME280;57046;45.988;18.664;2023-03-19T05:52:36;100952.34;;;4.11;82.27
69772;BME280;57046;45.988;18.664;2023-03-19T05:55:03;100946.47;;;4.14;81.74
69772;BME280;57046;45.988;18.664;2023-03-19T05:57:28;100942.97;;;4.19;81.67
69772;BME280;57046;45.988;18.664;2023-03-19T05:59:53;100939.78;;;4.22;81.18
69772;BME280;57046;45.988;18.664;2023-03-19T06:02:19;100944.34;;;4.36;81.15
69772;BME280;57046;45.988;18.664;2023-03-19T06:04:44;100945.16;;;4.32;80.56
69772;BME280;57046;45.988;18.664;2023-03-19T06:07:10;100943.25;;;4.42;79.91
69772;BME280;57046;45.988;18.664;2023-03-19T06:09:35;100948.88;;;4.46;80.62
69772;BME280;57046;45.988;18.664;2023-03-19T06:12:00;100944.34;;;4.51;79.29
69772;BME280;57046;45.988;18.664;2023-03-19T06:14:26;100941.41;;;4.53;79.68
69772;BME280;57046;45.988;18.664;2023-03-19T06:16:51;100956.13;;;4.60;78.75
69772;BME280;57046;45.988;18.664;2023-03-19T06:19:17;100959.59;;;4.66;78.43
69772;BME280;57046;45.988;18.664;2023-03-19T06:21:43;100959.59;;;4.66;79.25
69772;BME280;57046;45.988;18.664;2023-03-19T06:24:08;100956.41;;;4.69;79.16
69772;BME280;57046;45.988;18.664;2023-03-19T06:26:34;100964.97;;;4.76;78.42
69772;BME280;57046;45.988;18.664;2023-03-19T06:28:59;100959.34;;;4.83;78.36
69772;BME280;57046;45.988;18.664;2023-03-19T06:31:25;100955.84;;;4.87;76.78
69772;BME280;57046;45.988;18.664;2023-03-19T06:33:50;100972.44;;;4.94;77.17
69772;BME280;57046;45.988;18.664;2023-03-19T06:36:16;100971.34;;;4.90;78.08
69772;BME280;57046;45.988;18.664;2023-03-19T06:38:41;100972.44;;;4.99;77.23
69772;BME280;57046;45.988;18.664;2023-03-19T06:41:07;100971.06;;;5.07;76.80
69772;BME280;57046;45.988;18.664;2023-03-19T06:43:32;100974.00;;;5.10;76.21
69772;BME280;57046;45.988;18.664;2023-03-19T06:45:57;100968.41;;;5.12;76.10
69772;BME280;57046;45.988;18.664;2023-03-19T06:48:23;100971.53;;;5.39;83.99
69772;BME280;57046;45.988;18.664;2023-03-19T06:50:48;100976.66;;;5.41;77.21
69772;BME280;57046;45.988;18.664;2023-03-19T06:53:14;100984.66;;;5.46;78.34
69772;BME280;57046;45.988;18.664;2023-03-19T06:55:39;100986.53;;;5.50;75.07
69772;BME280;57046;45.988;18.664;2023-03-19T06:58:05;100972.31;;;5.50;74.63
69772;BME280;57046;45.988;18.664;2023-03-19T07:00:30;100980.84;;;5.62;73.94
69772;BME280;57046;45.988;18.664;2023-03-19T07:02:56;100984.88;;;5.59;74.53
69772;BME280;57046;45.988;18.664;2023-03-19T07:05:21;100990.50;;;5.63;74.33
69772;BME280;57046;45.988;18.664;2023-03-19T07:07:46;100987.81;;;5.68;74.39
69772;BME280;57046;45.988;18.664;2023-03-19T07:10:12;100983.22;;;5.69;74.67
69772;BME280;57046;45.988;18.664;2023-03-19T07:12:37;100988.81;;;5.82;74.42
69772;BME280;57046;45.988;18.664;2023-03-19T07:15:03;100986.94;;;5.88;74.51
69772;BME280;57046;45.988;18.664;2023-03-19T07:17:29;100989.34;;;5.94;74.67
69772;BME280;57046;45.988;18.664;2023-03-19T07:19:54;100988.22;;;6.00;73.81
69772;BME280;57046;45.988;18.664;2023-03-19T07:22:19;100991.38;;;6.12;74.12
69772;BME280;57046;45.988;18.664;2023-03-19T07:24:45;100988.41;;;6.14;73.42
69772;BME280;57046;45.988;18.664;2023-03-19T07:27:10;100990.53;;;6.17;73.93
69772;BME280;57046;45.988;18.664;2023-03-19T07:29:35;101002.84;;;6.28;72.99
69772;BME280;57046;45.988;18.664;2023-03-19T07:32:01;101004.41;;;6.34;72.62
69772;BME280;57046;45.988;18.664;2023-03-19T07:34:27;100999.53;;;6.36;71.99
69772;BME280;57046;45.988;18.664;2023-03-19T07:36:52;101006.53;;;6.37;70.64
69772;BME280;57046;45.988;18.664;2023-03-19T07:39:18;101001.66;;;6.44;71.38
69772;BME280;57046;45.988;18.664;2023-03-19T07:41:44;101011.81;;;6.47;71.27
69772;BME280;57046;45.988;18.664;2023-03-19T07:44:09;101009.59;;;6.59;71.26
69772;BME280;57046;45.988;18.664;2023-03-19T07:46:35;101005.81;;;6.65;70.66
69772;BME280;57046;45.988;18.664;2023-03-19T07:49:01;101002.75;;;6.77;71.31
69772;BME280;57046;45.988;18.664;2023-03-19T07:51:26;101000.19;;;6.96;72.82
69772;BME280;57046;45.988;18.664;2023-03-19T07:53:52;101012.44;;;7.07;69.59
69772;BME280;57046;45.988;18.664;2023-03-19T07:56:17;101010.03;;;7.05;68.57
69772;BME280;57046;45.988;18.664;2023-03-19T07:58:42;101014.81;;;7.13;68.28
69772;BME280;57046;45.988;18.664;2023-03-19T08:01:08;101001.03;;;7.20;70.21
69772;BME280;57046;45.988;18.664;2023-03-19T08:03:33;101004.59;;;7.39;70.32
69772;BME280;57046;45.988;18.664;2023-03-19T08:05:58;101003.06;;;7.57;69.90
69772;BME280;57046;45.988;18.664;2023-03-19T08:08:24;100989.22;;;7.68;68.56
69772;BME280;57046;45.988;18.664;2023-03-19T08:10:53;100988.78;;;7.80;67.85
69772;BME280;57046;45.988;18.664;2023-03-19T08:13:18;100996.38;;;7.97;68.43
69772;BME280;57046;45.988;18.664;2023-03-19T08:15:44;100997.59;;;8.09;68.12
69772;BME280;57046;45.988;18.664;2023-03-19T08:18:09;101001.44;;;8.22;66.49
69772;BME280;57046;45.988;18.664;2023-03-19T08:20:35;100998.97;;;8.26;67.12
69772;BME280;57046;45.988;18.664;2023-03-19T08:23:00;101001.47;;;8.41;66.07
69772;BME280;57046;45.988;18.664;2023-03-19T08:25:25;101000.81;;;8.49;66.64
69772;BME280;57046;45.988;18.664;2023-03-19T08:27:51;100994.72;;;8.76;65.13
69772;BME280;57046;45.988;18.664;2023-03-19T08:30:20;100997.63;;;8.98;64.84
69772;BME280;57046;45.988;18.664;2023-03-19T08:32:46;100999.53;;;9.11;62.56
69772;BME280;57046;45.988;18.664;2023-03-19T08:35:12;101000.56;;;9.15;62.90
69772;BME280;57046;45.988;18.664;2023-03-19T08:37:37;100997.06;;;9.28;60.84
69772;BME280;57046;45.988;18.664;2023-03-19T08:40:03;101007.53;;;9.30;61.29
69772;BME280;57046;45.988;18.664;2023-03-19T08:42:29;101008.50;;;9.52;62.54
69772;BME280;57046;45.988;18.664;2023-03-19T08:44:54;101011.69;;;9.68;61.10
69772;BME280;57046;45.988;18.664;2023-03-19T08:47:20;101011.47;;;9.78;58.24
69772;BME280;57046;45.988;18.664;2023-03-19T08:49:45;101008.78;;;9.92;59.03
69772;BME280;57046;45.988;18.664;2023-03-19T08:52:10;101017.47;;;10.02;58.36
69772;BME280;57046;45.988;18.664;2023-03-19T08:54:36;101017.16;;;10.17;57.35
69772;BME280;57046;45.988;18.664;2023-03-19T08:57:01;101013.66;;;10.31;57.60
69772;BME280;57046;45.988;18.664;2023-03-19T08:59:27;101016.84;;;10.55;57.94
69772;BME280;57046;45.988;18.664;2023-03-19T09:01:53;101012.94;;;10.83;58.18
69772;BME280;57046;45.988;18.664;2023-03-19T09:04:19;101005.34;;;10.85;56.71
69772;BME280;57046;45.988;18.664;2023-03-19T09:06:45;100993.78;;;10.93;55.74
69772;BME280;57046;45.988;18.664;2023-03-19T09:09:11;101008.75;;;11.21;56.60
69772;BME280;57046;45.988;18.664;2023-03-19T09:11:36;101008.66;;;11.35;56.81
69772;BME280;57046;45.988;18.664;2023-03-19T09:14:02;101004.88;;;11.45;56.07
69772;BME280;57046;45.988;18.664;2023-03-19T09:16:27;101024.06;;;11.65;54.99
69772;BME280;57046;45.988;18.664;2023-03-19T09:18:52;101014.41;;;11.73;54.54
69772;BME280;57046;45.988;18.664;2023-03-19T09:21:18;101009.50;;;11.84;54.57
69772;BME280;57046;45.988;18.664;2023-03-19T09:23:43;101005.38;;;11.95;54.74
69772;BME280;57046;45.988;18.664;2023-03-19T09:26:08;100994.91;;;12.10;54.17
69772;BME280;57046;45.988;18.664;2023-03-19T09:28:34;100993.50;;;12.30;53.16
69772;BME280;57046;45.988;18.664;2023-03-19T09:31:00;100989.19;;;12.46;52.68
69772;BME280;57046;45.988;18.664;2023-03-19T09:33:25;100992.38;;;12.65;53.97
69772;BME280;57046;45.988;18.664;2023-03-19T09:35:52;100992.19;;;12.88;51.02
69772;BME280;57046;45.988;18.664;2023-03-19T09:38:19;100993.28;;;13.04;51.47
69772;BME280;57046;45.988;18.664;2023-03-19T09:40:46;100991.22;;;13.09;50.92
69772;BME280;57046;45.988;18.664;2023-03-19T09:46:03;100988.31;;;13.14;49.80
69772;BME280;57046;45.988;18.664;2023-03-19T09:48:39;100986.56;;;13.18;50.65
69772;BME280;57046;45.988;18.664;2023-03-19T09:51:14;101003.25;;;13.38;50.90
69772;BME280;57046;45.988;18.664;2023-03-19T09:56:21;100984.19;;;13.55;49.19
69772;BME280;57046;45.988;18.664;2023-03-19T09:58:46;100984.59;;;13.74;48.87
69772;BME280;57046;45.988;18.664;2023-03-19T10:01:22;100978.41;;;13.94;49.22
69772;BME280;57046;45.988;18.664;2023-03-19T10:06:37;100976.06;;;14.25;46.38
69772;BME280;57046;45.988;18.664;2023-03-19T10:11:47;100965.84;;;14.52;45.87
69772;BME280;57046;45.988;18.664;2023-03-19T10:17:00;100953.31;;;14.71;44.84
69772;BME280;57046;45.988;18.664;2023-03-19T10:19:54;100949.19;;;14.98;45.60
69772;BME280;57046;45.988;18.664;2023-03-19T10:22:26;100937.44;;;15.18;45.27
69772;BME280;57046;45.988;18.664;2023-03-19T10:24:56;100934.50;;;15.36;46.57
69772;BME280;57046;45.988;18.664;2023-03-19T10:27:24;100946.75;;;15.42;44.39
69772;BME280;57046;45.988;18.664;2023-03-19T10:29:51;100948.28;;;15.51;43.11
69772;BME280;57046;45.988;18.664;2023-03-19T10:35:07;100944.41;;;15.76;43.09
69772;BME280;57046;45.988;18.664;2023-03-19T10:37:34;100932.38;;;16.17;44.25
69772;BME280;57046;45.988;18.664;2023-03-19T10:40:00;100947.47;;;16.27;42.38
69772;BME280;57046;45.988;18.664;2023-03-19T10:45:26;100931.88;;;16.67;40.83
69772;BME280;57046;45.988;18.664;2023-03-19T10:47:54;100933.06;;;16.82;41.58
69772;BME280;57046;45.988;18.664;2023-03-19T10:50:55;100929.00;;;16.92;42.55
69772;BME280;57046;45.988;18.664;2023-03-19T10:53:37;100920.75;;;17.04;41.24
69772;BME280;57046;45.988;18.664;2023-03-19T10:56:18;100924.28;;;17.20;41.15
69772;BME280;57046;45.988;18.664;2023-03-19T10:59:05;100925.50;;;17.22;41.07
69772;BME280;57046;45.988;18.664;2023-03-19T11:01:37;100927.53;;;17.41;40.66
69772;BME280;57046;45.988;18.664;2023-03-19T11:04:19;100911.47;;;17.55;39.95
69772;BME280;57046;45.988;18.664;2023-03-19T11:06:50;100905.69;;;17.76;40.21
69772;BME280;57046;45.988;18.664;2023-03-19T11:09:27;100908.09;;;17.77;41.16
69772;BME280;57046;45.988;18.664;2023-03-19T11:11:57;100903.03;;;18.14;41.30
69772;BME280;57046;45.988;18.664;2023-03-19T11:14:39;100896.56;;;18.22;38.96
69772;BME280;57046;45.988;18.664;2023-03-19T11:17:25;100903.03;;;18.53;41.12
69772;BME280;57046;45.988;18.664;2023-03-19T11:19:57;100888.69;;;18.40;39.59
69772;BME280;57046;45.988;18.664;2023-03-19T11:24:51;100901.13;;;18.76;39.82
69772;BME280;57046;45.988;18.664;2023-03-19T11:27:34;100886.94;;;18.93;40.74
69772;BME280;57046;45.988;18.664;2023-03-19T11:30:01;100878.47;;;18.79;38.10
69772;BME280;57046;45.988;18.664;2023-03-19T11:32:51;100877.06;;;18.89;38.09
69772;BME280;57046;45.988;18.664;2023-03-19T11:35:22;100868.97;;;18.96;37.40
69772;BME280;57046;45.988;18.664;2023-03-19T11:37:56;100861.25;;;19.01;37.27
69772;BME280;57046;45.988;18.664;2023-03-19T11:40:41;100861.84;;;19.14;38.80
69772;BME280;57046;45.988;18.664;2023-03-19T11:43:29;100859.22;;;19.21;36.73
69772;BME280;57046;45.988;18.664;2023-03-19T11:49:17;100862.03;;;19.51;36.98
69772;BME280;57046;45.988;18.664;2023-03-19T11:51:50;100850.66;;;19.49;37.15
69772;BME280;57046;45.988;18.664;2023-03-19T11:56:58;100845.34;;;19.59;36.24
69772;BME280;57046;45.988;18.664;2023-03-19T12:07:43;100835.09;;;20.19;33.80
69772;BME280;57046;45.988;18.664;2023-03-19T12:21:36;100810.81;;;20.21;35.10
69772;BME280;57046;45.988;18.664;2023-03-19T12:32:15;100786.06;;;20.55;33.22
69772;BME280;57046;45.988;18.664;2023-03-19T12:34:58;100773.19;;;20.66;33.79
69772;BME280;57046;45.988;18.664;2023-03-19T12:37:36;100772.19;;;20.85;33.92
69772;BME280;57046;45.988;18.664;2023-03-19T12:40:42;100773.81;;;20.96;33.41
69772;BME280;57046;45.988;18.664;2023-03-19T12:45:53;100767.69;;;21.13;33.66
69772;BME280;57046;45.988;18.664;2023-03-19T12:48:37;100764.63;;;21.25;30.85
69772;BME280;57046;45.988;18.664;2023-03-19T12:51:07;100754.44;;;21.26;30.89
69772;BME280;57046;45.988;18.664;2023-03-19T12:53:53;100757.69;;;21.53;32.19
69772;BME280;57046;45.988;18.664;2023-03-19T12:56:31;100746.66;;;21.42;32.43
69772;BME280;57046;45.988;18.664;2023-03-19T12:59:17;100753.22;;;21.23;31.34
69772;BME280;57046;45.988;18.664;2023-03-19T13:01:52;100743.47;;;21.37;31.44
69772;BME280;57046;45.988;18.664;2023-03-19T13:04:27;100752.19;;;21.49;31.54
69772;BME280;57046;45.988;18.664;2023-03-19T13:12:12;100746.78;;;21.70;32.24
69772;BME280;57046;45.988;18.664;2023-03-19T13:17:59;100728.31;;;21.81;32.00
69772;BME280;57046;45.988;18.664;2023-03-19T13:22:59;100710.16;;;21.59;31.15
69772;BME280;57046;45.988;18.664;2023-03-19T13:25:32;100723.59;;;21.78;30.65
69772;BME280;57046;45.988;18.664;2023-03-19T13:27:59;100730.25;;;21.77;31.06
69772;BME280;57046;45.988;18.664;2023-03-19T13:30:24;100722.47;;;21.90;31.11
69772;BME280;57046;45.988;18.664;2023-03-19T13:33:04;100705.13;;;21.86;31.26
69772;BME280;57046;45.988;18.664;2023-03-19T13:35:35;100731.16;;;22.10;30.19
69772;BME280;57046;45.988;18.664;2023-03-19T13:38:19;100728.78;;;22.15;30.44
69772;BME280;57046;45.988;18.664;2023-03-19T13:40:50;100727.22;;;22.25;30.28
69772;BME280;57046;45.988;18.664;2023-03-19T13:43:40;100725.25;;;22.15;29.94
69772;BME280;57046;45.988;18.664;2023-03-19T13:48:36;100718.97;;;22.39;29.23
69772;BME280;57046;45.988;18.664;2023-03-19T13:51:23;100715.44;;;22.56;29.34
69772;BME280;57046;45.988;18.664;2023-03-19T13:59:25;100717.03;;;22.47;29.91
69772;BME280;57046;45.988;18.664;2023-03-19T14:01:51;100711.13;;;22.48;29.84
69772;BME280;57046;45.988;18.664;2023-03-19T14:04:20;100706.41;;;22.35;29.97
69772;BME280;57046;45.988;18.664;2023-03-19T14:06:49;100657.19;;;22.05;29.96
69772;BME280;57046;45.988;18.664;2023-03-19T14:09:41;100694.59;;;22.45;29.97
69772;BME280;57046;45.988;18.664;2023-03-19T14:12:19;100659.19;;;22.29;29.54
69772;BME280;57046;45.988;18.664;2023-03-19T14:14:55;100693.00;;;22.40;29.53